Du har inga inställningar för hoppväder.nu

Hoppväder.nu

Senast uppdaterat 21:22

UTC-tid

2019-09-19 kl. 19:22


Sol och måne

Solen går upp 6:37 och går ner 19:50 (beräknade cirkatider)
Nästa fullmåne blir om 24 dagar (2019-10-13)

METAR

ESSA (Arlanda, Stockholm)
(32 minuter sedan)
ESSA 191850Z 20002KT CAVOK 01/M00 Q1021 NOSIG=



ESSD (Borlänge)
(32 minuter sedan)
ESSD 191850Z AUTO 25005KT 9999 NCD 06/01 Q1022=



EFMA (Mariehamn)
(32 minuter sedan)
EFMA 191850Z AUTO 31002KT 9999 SCT048 03/02 Q1020=



ESOW (Västerås)
(32 minuter sedan)
ESOW 191850Z AUTO VRB01KT 9999 NCD 04/00 Q1022=






TAF

ESSA (Arlanda, Stockholm)
(112 minuter sedan)
ESSA 191730Z 1918/2018 29004KT CAVOK=



ESSD (Borlänge)
ESSD



EFMA (Mariehamn)
(106 minuter sedan)
EFMA 191736Z 1918/2003 33007KT 9999 BKN040 PROB30 TEMPO 1918/1920 FEW025CB BKN030=



ESOW (Västerås)
ESOW





Kodnycklar till TAF och METAR






LHP

(Gryttjom är område F2c i Norra delen)

ÖVERSIKT FÖR OMRÅDE B UTFÄRDAD 191117
GÄLLANDE DEN 19 SEPTEMBER 2019 MELLAN 12 OCH 20 UTC


Väderöversikt

En högtrycksrygg täcker södra Sverige och rör sig österut

Sikt under 5 kilometer eller molnbas under 1000 fot
Väntas inte förekomma under perioden.

Måttlig eller svår isbildning
Väntas inte förekomma under perioden

Måttlig eller svår turbulens
Väntas inte förekomma under perioden

PROGNOS FÖR OMRÅDE B DEN NORRA DELEN UTFÄRDAD 191117
GÄLLANDE DEN 19 SEPTEMBER 2019 MELLAN 12 OCH 20 UTC

Måttlig eller svår turbulens
12-20UTC: I hela området: Väntas inte förekomma under perioden

Måttlig eller svår isbildning
12-20UTC: I hela området: Väntas inte förekomma under perioden

Sikt/Väder/Moln
12-14UTC: Område F1b: Sikt >8km i regnskurar. Molnbas >2000ft.

12-20UTC: Område F1a,F2a,F2c,F2b,F2d: Sikt >8km. Molnbas >2000ft.

14-20UTC: Område F1b: Sikt >8km. Molnbas >2000ft.


Molnöversida
12-14UTC: Område F1b: Molnöversida > FL125.

12-20UTC: Område F1a,F2a,F2c,F2b,F2d: Ingen prognos

14-20UTC: Område F1b: Ingen prognos


CB/TCU Moln
12-14UTC: Område F1b: ISOL CB

12-20UTC: Område F1a,F2a,F2c,F2b,F2d: Väntas inte förekomma under perioden

14-20UTC: Område F1b: Väntas inte förekomma under perioden


Nollgradersisoterm
12-20UTC: Noll grader 3000ft - FL050.

Vind vid marken
12-14UTC: Område F2a: NV-N/3-11 knop, byar upp till 22 knop.
Område F1a: N/3-17 knop, byar upp till 24 knop.
Område F2b: NV-N/5-8 knop, byar upp till 19 knop.
Område F2c: NV-N/4-9 knop, byar upp till 21 knop.
Område F1b: NV-N/5-24 knop, byar upp till 31 knop.
Område F2d: NV-N/5-12 knop, byar upp till 24 knop.

14-16UTC: Område F2d: NV-N/2-11 knop, byar upp till 20 knop.
Område F2b: NV-N/5-8 knop, byar upp till 18 knop.
Område F2c: NV-N/2-10 knop, byar upp till 17 knop.
Område F1a: NV-N/0-15 knop, byar upp till 20 knop.
Område F1b: NV-N/3-22 knop, byar upp till 29 knop.
Område F2a: NV-N/2-11 knop, byar upp till 19 knop.

16-18UTC: Område F2c: W-NV/0-5 knop, byar upp till 13 knop.
Område F1a: NV/0-10 knop, byar upp till 16 knop.
Område F2d: W-NV/0-4 knop, byar upp till 12 knop.
Område F2b: W-NV/1-4 knop, byar upp till 12 knop.
Område F1b: NV-N/1-20 knop, byar upp till 27 knop.
Område F2a: NV/0-8 knop, byar upp till 15 knop.

18-20UTC: Område F1a: W-NV/1-13 knop, byar upp till 17 knop.
Område F1b: W-NV/1-17 knop, byar upp till 23 knop.
Område F2b: W-NV/0-4 knop.
Område F2a: W-NV/0-7 knop.
Område F2d: Lugnt.
Område F2c: V/0-5 knop.


Genomsnittlig vind och temperatur för området
2000ft:
12-14UTC: 340/16kt +4.
14-18UTC: 330/15kt +5.
18-20UTC: 330/16kt +5.

FL50:
12-14UTC: 340/18kt -3.
14-18UTC: 330/19kt -2.
18-20UTC: 330/18kt -2.

FL100:
12-16UTC: 330/28kt -14.
16-18UTC: 340/25kt -14.
18-20UTC: 340/23kt -13.

Lägsta QNH
1019 hPa.

OBS! endast utbredd måttlig eller svår isbildning och turbulens prognostiseras i LLF.
Avsaknad av isbildning och turbulens i prognosen utesluter inte förekomst av lätt isbildning och turbulens.
För indikation på lätt isbildning, var vänlig kontrollera om prognosen för molntopp ligger högre än nollgradersisotermen.
Förekomst av TCU eller CB medför alltid en risk för måttlig eller svår isbildning och turbulens även om det inte framgår explicit av prognosen.





Spotting

Hur fungerar spotthjälpen och Vindkartan?

Markvind är ca 0-3 m/s.
Vind på 600 m ca 8 m/s.
Vind på 1500 m ca 9 m/s.
Vind på 3000 m ca 12 m/s.
SE-GEE flyger ca 33 m/s över marken på finalen.
Du driver ca 532 m bakåt i frifall. (710 m)
Lämplig spot är 7 sekunder eller 234 m efter gropen.
(13 s eller 435 m)
För små grupper eller ensamhoppare bör man vänta 4-6 sekunder mellan grupperna.
För större grupper bör man vänta 9-11 sekunder mellan grupperna.


Vindkartan

Senast uppdaterad 21:22




All data kommer från LFV.se